createdAt,value
2019-05-22T00:02:33.754Z,42.57
2019-05-22T00:05:14.401Z,40.63
2019-05-22T00:07:45.414Z,37.10
2019-05-22T00:10:19.099Z,40.43
2019-05-22T00:12:49.980Z,42.70
2019-05-22T00:15:21.474Z,38.67
2019-05-22T00:17:51.518Z,38.97
2019-05-22T00:20:23.405Z,43.80
2019-05-22T00:22:54.114Z,38.00
2019-05-22T00:25:26.543Z,39.93
2019-05-22T00:27:56.397Z,38.10
2019-05-22T00:30:27.246Z,35.97
2019-05-22T00:32:57.858Z,39.33
2019-05-22T00:35:29.249Z,37.77
2019-05-22T00:38:00.870Z,37.57
2019-05-22T00:40:32.487Z,34.83
2019-05-22T00:43:10.711Z,36.73
2019-05-22T00:45:36.795Z,37.20
2019-05-22T00:48:07.761Z,35.43
2019-05-22T00:50:49.755Z,33.43
2019-05-22T00:53:35.922Z,32.47
2019-05-22T00:56:25.766Z,34.13
2019-05-22T00:59:00.559Z,34.90
2019-05-22T01:01:38.638Z,31.60
2019-05-22T01:04:11.342Z,30.30
2019-05-22T01:06:42.973Z,30.77
2019-05-22T01:09:18.358Z,30.93
2019-05-22T01:11:48.775Z,35.80
2019-05-22T01:14:20.616Z,32.90
2019-05-22T01:16:51.775Z,31.67
2019-05-22T01:19:22.098Z,28.70
2019-05-22T01:21:51.971Z,29.00
2019-05-22T01:24:23.498Z,28.57
2019-05-22T01:26:54.985Z,31.20
2019-05-22T01:29:24.910Z,29.57
2019-05-22T01:32:00.330Z,27.17
2019-05-22T01:34:32.589Z,30.93
2019-05-22T01:37:07.878Z,28.17
2019-05-22T01:40:15.778Z,27.43
2019-05-22T01:42:48.181Z,27.00
2019-05-22T01:45:20.702Z,27.33
2019-05-22T01:48:00.101Z,26.87
2019-05-22T01:50:43.458Z,25.93
2019-05-22T01:53:15.561Z,25.97
2019-05-22T01:55:47.941Z,26.27
2019-05-22T01:58:20.773Z,23.27
2019-05-22T02:00:52.630Z,26.70
2019-05-22T02:03:25.147Z,23.10
2019-05-22T02:05:55.130Z,20.77
2019-05-22T02:08:26.660Z,21.00
2019-05-22T02:10:58.022Z,24.57
2019-05-22T02:13:33.221Z,24.10
2019-05-22T02:16:04.490Z,20.33
2019-05-22T02:18:36.913Z,23.83
2019-05-22T02:21:07.395Z,21.17
2019-05-22T02:23:38.127Z,20.20
2019-05-22T02:26:09.637Z,19.27
2019-05-22T02:28:40.174Z,20.23
2019-05-22T02:31:11.680Z,22.17
2019-05-22T02:34:01.561Z,20.37
2019-05-22T02:36:32.869Z,18.80
2019-05-22T02:39:04.481Z,19.67
2019-05-22T02:41:42.189Z,18.83
2019-05-22T02:44:12.851Z,19.50
2019-05-22T02:46:43.799Z,20.17
2019-05-22T02:49:14.645Z,19.90
2019-05-22T02:51:45.351Z,21.80
2019-05-22T02:54:15.525Z,17.93
2019-05-22T02:56:45.586Z,14.63
2019-05-22T02:59:16.529Z,20.00
2019-05-22T03:01:47.083Z,16.67
2019-05-22T03:04:18.227Z,17.33
2019-05-22T03:06:48.435Z,18.17
2019-05-22T03:09:19.695Z,16.37
2019-05-22T03:11:53.885Z,17.10
2019-05-22T03:14:24.854Z,17.07
2019-05-22T03:16:56.397Z,17.93
2019-05-22T03:19:34.075Z,17.57
2019-05-22T03:22:10.713Z,13.67
2019-05-22T03:24:41.367Z,15.57
2019-05-22T03:27:11.699Z,16.83
2019-05-22T03:29:52.484Z,16.60
2019-05-22T03:32:22.832Z,16.57
2019-05-22T03:34:53.136Z,17.73
2019-05-22T03:37:23.590Z,14.67
2019-05-22T03:39:53.611Z,15.80
2019-05-22T03:42:24.643Z,14.43
2019-05-22T03:44:55.803Z,14.30
2019-05-22T03:47:27.179Z,14.53
2019-05-22T03:49:57.979Z,14.07
2019-05-22T03:52:28.407Z,14.33
2019-05-22T03:54:58.331Z,14.40
2019-05-22T03:57:28.274Z,12.80
2019-05-22T03:59:58.331Z,15.27
2019-05-22T04:02:28.363Z,13.27
2019-05-22T04:04:58.391Z,14.10
2019-05-22T04:07:28.623Z,15.17
2019-05-22T04:09:59.410Z,12.83
2019-05-22T04:12:29.677Z,14.10
2019-05-22T04:15:00.191Z,13.20
2019-05-22T04:17:30.191Z,12.77
2019-05-22T04:20:00.132Z,13.87
2019-05-22T04:22:30.328Z,14.23
2019-05-22T04:25:00.463Z,14.10
2019-05-22T04:27:30.827Z,12.63
2019-05-22T04:30:01.128Z,11.03
2019-05-22T04:32:34.918Z,13.73
2019-05-22T04:35:07.182Z,12.53
2019-05-22T04:37:37.148Z,11.37
2019-05-22T04:40:47.487Z,13.07
2019-05-22T04:43:20.675Z,12.87
2019-05-22T04:45:51.329Z,11.23
2019-05-22T04:48:21.878Z,11.90
2019-05-22T04:50:53.246Z,11.40
2019-05-22T04:53:23.200Z,11.43
2019-05-22T04:55:53.054Z,12.03
2019-05-22T04:58:29.933Z,11.73
2019-05-22T05:00:59.930Z,11.23
2019-05-22T05:03:30.077Z,10.83
2019-05-22T05:06:00.101Z,10.10
2019-05-22T05:08:30.525Z,11.03
2019-05-22T05:11:02.813Z,10.30
2019-05-22T05:13:32.802Z,9.63
2019-05-22T05:16:02.754Z,10.67
2019-05-22T05:18:33.020Z,10.23
2019-05-22T05:21:03.054Z,10.07
2019-05-22T05:23:32.910Z,8.63
2019-05-22T05:26:02.900Z,10.37
2019-05-22T05:28:33.491Z,10.27
2019-05-22T05:31:03.461Z,9.30
2019-05-22T05:33:39.353Z,9.07
2019-05-22T05:36:09.292Z,10.93
2019-05-22T05:38:39.440Z,9.37
2019-05-22T05:41:09.442Z,10.00
2019-05-22T05:43:39.370Z,9.47
2019-05-22T05:46:09.227Z,8.80
2019-05-22T05:48:39.978Z,8.63
2019-05-22T05:51:40.514Z,8.97
2019-05-22T05:54:13.180Z,9.87
2019-05-22T05:56:48.208Z,9.07
2019-05-22T05:59:19.796Z,9.00
2019-05-22T06:01:53.346Z,8.60
2019-05-22T06:04:35.143Z,8.00
2019-05-22T06:07:23.442Z,8.77
2019-05-22T06:10:40.703Z,10.63
2019-05-22T06:13:11.623Z,8.37
2019-05-22T06:16:29.191Z,8.40
2019-05-22T06:18:59.324Z,8.63
2019-05-22T06:21:29.181Z,7.80
2019-05-22T06:24:22.044Z,8.03
2019-05-22T06:27:10.854Z,8.97
2019-05-22T06:30:10.554Z,9.17
2019-05-22T06:33:18.126Z,7.63
2019-05-22T06:35:49.498Z,7.03
2019-05-22T06:38:46.148Z,8.00
2019-05-22T06:41:17.673Z,10.83
2019-05-22T06:44:38.897Z,6.67
2019-05-22T06:47:15.354Z,8.60
2019-05-22T06:49:46.216Z,7.33
2019-05-22T06:52:16.963Z,8.43
2019-05-22T06:54:46.829Z,8.17
2019-05-22T06:57:20.562Z,6.87
2019-05-22T07:00:11.675Z,7.37
2019-05-22T07:02:23.657Z,7.33
2019-05-22T07:04:53.858Z,7.63
2019-05-22T07:07:27.270Z,7.30
2019-05-22T07:09:57.857Z,6.37
2019-05-22T07:12:29.111Z,7.37
2019-05-22T07:15:46.392Z,7.40
2019-05-22T07:18:19.824Z,7.67
2019-05-22T07:20:52.158Z,7.33
2019-05-22T07:23:32.806Z,9.27
2019-05-22T07:26:04.115Z,6.20
2019-05-22T07:28:34.839Z,10.07
2019-05-22T07:31:05.911Z,9.07
2019-05-22T07:33:35.835Z,5.93
2019-05-22T07:36:09.868Z,8.63
2019-05-22T07:38:37.509Z,12.90
2019-05-22T07:41:08.395Z,7.53
2019-05-22T07:43:41.443Z,8.87
2019-05-22T07:46:09.916Z,7.47
2019-05-22T07:48:39.707Z,12.97
2019-05-22T07:51:10.152Z,9.77
2019-05-22T07:53:40.175Z,6.57
2019-05-22T07:56:11.470Z,5.33
2019-05-22T07:58:41.828Z,6.63
2019-05-22T08:01:12.173Z,5.27
2019-05-22T08:03:42.765Z,7.30
2019-05-22T08:06:13.290Z,7.13
2019-05-22T08:08:44.507Z,7.53
2019-05-22T08:11:14.507Z,8.10
2019-05-22T08:13:44.959Z,9.63
2019-05-22T08:16:15.846Z,11.30
2019-05-22T08:18:46.543Z,14.60
2019-05-22T08:21:16.791Z,11.83
2019-05-22T08:23:46.742Z,8.43
2019-05-22T08:26:19.044Z,7.17
2019-05-22T08:28:49.083Z,6.17
2019-05-22T08:31:20.766Z,9.33
2019-05-22T08:33:50.758Z,7.40
2019-05-22T08:36:20.603Z,5.03
2019-05-22T08:38:50.596Z,8.27
2019-05-22T08:41:27.094Z,8.90
2019-05-22T08:44:15.126Z,8.30
2019-05-22T08:46:28.839Z,8.43
2019-05-22T08:48:58.767Z,7.33
2019-05-22T08:51:28.778Z,12.57
2019-05-22T08:53:59.275Z,11.90
2019-05-22T08:56:30.501Z,14.43
2019-05-22T08:59:18.384Z,7.73
2019-05-22T09:01:33.154Z,12.87
2019-05-22T09:04:03.118Z,12.37
2019-05-22T09:06:33.144Z,15.57
2019-05-22T09:09:03.692Z,15.47
2019-05-22T09:11:33.614Z,18.20
2019-05-22T09:14:03.810Z,11.43
2019-05-22T09:16:33.985Z,11.63
2019-05-22T09:19:04.482Z,10.73
2019-05-22T09:21:34.422Z,11.80
2019-05-22T09:24:04.734Z,12.23
2019-05-22T09:26:34.666Z,12.83
2019-05-22T09:29:05.251Z,11.90
2019-05-22T09:31:35.187Z,11.03
2019-05-22T09:34:05.690Z,8.93
2019-05-22T09:36:35.655Z,9.00
2019-05-22T09:39:07.128Z,10.23
2019-05-22T09:41:37.127Z,10.73
2019-05-22T09:44:06.987Z,14.60
2019-05-22T09:46:37.141Z,17.60
2019-05-22T09:49:08.152Z,13.93
2019-05-22T09:51:38.266Z,12.67
2019-05-22T09:54:08.257Z,21.47
2019-05-22T09:56:38.441Z,16.47
2019-05-22T09:59:08.295Z,20.13
2019-05-22T10:01:38.214Z,20.30
2019-05-22T10:04:08.501Z,18.33
2019-05-22T10:06:38.842Z,25.43
2019-05-22T10:09:08.766Z,34.20
2019-05-22T10:11:39.011Z,28.10
2019-05-22T10:14:09.905Z,25.07
2019-05-22T10:16:39.777Z,29.60
2019-05-22T10:19:09.631Z,28.73
2019-05-22T10:21:39.423Z,25.67
2019-05-22T10:24:09.696Z,27.30
2019-05-22T10:26:39.660Z,24.53
2019-05-22T10:29:09.512Z,24.90
2019-05-22T10:31:39.390Z,23.40
2019-05-22T10:34:09.235Z,30.23
2019-05-22T10:36:42.606Z,21.37
2019-05-22T10:39:10.882Z,21.10
2019-05-22T10:41:41.243Z,25.13
2019-05-22T10:44:12.420Z,19.37
2019-05-22T10:46:42.195Z,21.00
2019-05-22T10:49:12.135Z,20.90
2019-05-22T10:51:42.058Z,15.10
2019-05-22T10:54:11.997Z,17.87
2019-05-22T10:56:42.042Z,17.50
2019-05-22T10:59:11.989Z,17.70
2019-05-22T11:01:42.122Z,14.93
2019-05-22T11:04:11.997Z,18.23
2019-05-22T11:06:42.043Z,22.30
2019-05-22T11:09:13.588Z,21.37
2019-05-22T11:11:43.438Z,20.90
2019-05-22T11:14:14.426Z,17.27
2019-05-22T11:16:46.050Z,18.83
2019-05-22T11:19:16.229Z,15.70
2019-05-22T11:21:46.084Z,19.40
2019-05-22T11:24:15.930Z,14.17
2019-05-22T11:26:45.858Z,17.60
2019-05-22T11:29:15.955Z,16.57
2019-05-22T11:31:46.206Z,14.87
2019-05-22T11:34:16.223Z,13.03
2019-05-22T11:36:46.184Z,16.30
2019-05-22T11:39:17.614Z,13.27
2019-05-22T11:41:47.550Z,11.50
2019-05-22T11:44:17.578Z,12.47
2019-05-22T11:46:47.459Z,11.33
2019-05-22T11:49:17.385Z,12.23
2019-05-22T11:51:47.391Z,13.53
2019-05-22T11:54:17.251Z,11.37
2019-05-22T11:56:47.144Z,12.97
2019-05-22T11:59:17.170Z,10.40
2019-05-22T12:01:47.361Z,10.10
2019-05-22T12:04:17.258Z,10.47
2019-05-22T12:06:47.534Z,10.37
2019-05-22T12:09:19.342Z,12.80
2019-05-22T12:11:49.314Z,12.93
2019-05-22T12:14:20.599Z,12.47
2019-05-22T12:16:53.088Z,12.10
2019-05-22T12:19:22.302Z,13.20
2019-05-22T12:21:52.094Z,11.07
2019-05-22T12:24:28.509Z,10.57
2019-05-22T12:26:53.591Z,7.93
2019-05-22T12:29:23.711Z,9.07
2019-05-22T12:31:53.579Z,8.77
2019-05-22T12:34:23.505Z,11.53
2019-05-22T12:36:53.835Z,10.60
2019-05-22T12:39:24.677Z,8.50
2019-05-22T12:41:54.506Z,11.93
2019-05-22T12:44:24.452Z,8.30
2019-05-22T12:46:54.646Z,8.27
2019-05-22T12:49:25.146Z,7.67
2019-05-22T12:51:55.507Z,8.17
2019-05-22T12:54:25.374Z,10.40
2019-05-22T12:56:55.751Z,9.60
2019-05-22T12:59:26.155Z,10.67
2019-05-22T13:01:56.141Z,7.33
2019-05-22T13:04:26.128Z,7.97
2019-05-22T13:06:56.094Z,8.43
2019-05-22T13:09:25.910Z,7.77
2019-05-22T13:11:56.042Z,8.70
2019-05-22T13:14:25.918Z,7.43
2019-05-22T13:16:56.327Z,9.57
2019-05-22T13:19:26.798Z,8.60
2019-05-22T13:21:57.043Z,6.80
2019-05-22T13:24:28.140Z,9.47
2019-05-22T13:26:58.045Z,8.60
2019-05-22T13:29:28.233Z,7.27
2019-05-22T13:31:58.355Z,7.30
2019-05-22T13:34:28.806Z,7.97
2019-05-22T13:37:00.683Z,9.63
2019-05-22T13:39:30.543Z,8.00
2019-05-22T13:42:00.410Z,8.90
2019-05-22T13:44:30.363Z,9.43
2019-05-22T13:47:00.388Z,8.07
2019-05-22T13:49:32.490Z,9.17
2019-05-22T13:52:02.357Z,8.27
2019-05-22T13:54:32.464Z,8.93
2019-05-22T13:57:02.326Z,8.10
2019-05-22T13:59:32.114Z,8.67
2019-05-22T14:02:02.166Z,10.77
2019-05-22T14:04:32.220Z,10.87
2019-05-22T14:07:02.757Z,13.13
2019-05-22T14:09:32.836Z,11.33
2019-05-22T14:12:04.236Z,8.87
2019-05-22T14:14:34.078Z,13.27
2019-05-22T14:17:04.033Z,10.67
2019-05-22T14:19:33.987Z,9.70
2019-05-22T14:22:04.214Z,11.13
2019-05-22T14:24:34.290Z,11.70
2019-05-22T14:27:04.263Z,10.60
2019-05-22T14:29:34.190Z,11.20
2019-05-22T14:32:04.613Z,10.07
2019-05-22T14:34:34.550Z,9.73
2019-05-22T14:37:05.153Z,13.30
2019-05-22T14:39:35.601Z,11.47
2019-05-22T14:42:05.863Z,13.97
2019-05-22T14:44:35.795Z,9.53
2019-05-22T14:47:14.952Z,12.17
2019-05-22T14:49:37.342Z,13.27
2019-05-22T14:52:07.648Z,6.47
2019-05-22T14:54:37.820Z,10.50
2019-05-22T14:57:08.060Z,8.37
2019-05-22T14:59:38.415Z,8.03
2019-05-22T15:02:09.392Z,9.53
2019-05-22T15:04:39.400Z,7.87
2019-05-22T15:07:09.497Z,8.17
2019-05-22T15:09:39.342Z,8.33
2019-05-22T15:12:09.517Z,7.87
2019-05-22T15:14:39.526Z,7.77
2019-05-22T15:17:09.668Z,6.23
2019-05-22T15:19:39.602Z,12.23
2019-05-22T15:22:09.647Z,14.97
2019-05-22T15:24:39.596Z,12.57
2019-05-22T15:27:10.074Z,9.23
2019-05-22T15:29:39.940Z,15.80
2019-05-22T15:32:10.572Z,13.97
2019-05-22T15:34:40.501Z,9.20
2019-05-22T15:37:12.910Z,9.27
2019-05-22T15:39:43.325Z,10.43
2019-05-22T15:42:30.939Z,10.53
2019-05-22T15:45:01.418Z,9.70
2019-05-22T15:47:50.199Z,9.20
2019-05-22T15:50:03.978Z,9.13
2019-05-22T15:52:35.074Z,8.73
2019-05-22T15:55:05.827Z,13.73
2019-05-22T15:57:36.635Z,12.80
2019-05-22T16:00:08.389Z,9.40
2019-05-22T16:02:40.011Z,11.70
2019-05-22T16:05:10.562Z,10.90
2019-05-22T16:07:40.425Z,11.97
2019-05-22T16:10:11.588Z,9.10
2019-05-22T16:12:41.871Z,11.10
2019-05-22T16:15:12.567Z,11.27
2019-05-22T16:17:42.602Z,8.77
2019-05-22T16:20:12.667Z,10.83
2019-05-22T16:22:42.599Z,9.53
2019-05-22T16:25:13.037Z,12.33
2019-05-22T16:27:44.010Z,9.40
2019-05-22T16:30:14.485Z,11.00
2019-05-22T16:32:44.786Z,12.17
2019-05-22T16:35:14.806Z,10.10
2019-05-22T16:37:44.826Z,9.17
2019-05-22T16:40:15.371Z,11.07
2019-05-22T16:42:45.287Z,8.60
2019-05-22T16:45:15.133Z,6.63
2019-05-22T16:47:45.510Z,7.33
2019-05-22T16:50:15.375Z,5.70
2019-05-22T16:52:45.816Z,10.03
2019-05-22T16:55:16.233Z,11.17
2019-05-22T16:57:46.172Z,11.27
2019-05-22T17:00:16.201Z,9.23
2019-05-22T17:02:46.423Z,10.67
2019-05-22T17:05:16.826Z,7.80
2019-05-22T17:07:46.759Z,10.20
2019-05-22T17:10:17.754Z,10.57
2019-05-22T17:12:47.818Z,16.43
2019-05-22T17:15:18.323Z,8.80
2019-05-22T17:17:48.273Z,10.63
2019-05-22T17:20:20.578Z,11.97
2019-05-22T17:22:50.670Z,12.17
2019-05-22T17:25:20.701Z,7.57
2019-05-22T17:27:50.643Z,7.83
2019-05-22T17:30:21.331Z,14.07
2019-05-22T17:32:52.450Z,11.67
2019-05-22T17:35:22.633Z,9.10
2019-05-22T17:37:54.771Z,7.50
2019-05-22T17:40:25.451Z,5.73
2019-05-22T17:42:55.494Z,8.73
2019-05-22T17:45:26.884Z,8.60
2019-05-22T17:47:57.695Z,7.23
2019-05-22T17:50:28.154Z,14.37
2019-05-22T17:52:58.666Z,11.33
2019-05-22T17:55:30.105Z,9.13
2019-05-22T17:58:00.243Z,11.03
2019-05-22T18:00:34.966Z,9.60
2019-05-22T18:03:05.098Z,11.00
2019-05-22T18:05:35.414Z,8.43
2019-05-22T18:08:05.662Z,6.87
2019-05-22T18:10:40.178Z,9.37
2019-05-22T18:13:08.672Z,10.23
2019-05-22T18:15:39.977Z,7.30
2019-05-22T18:18:10.590Z,10.13
2019-05-22T18:20:43.737Z,6.57
2019-05-22T18:23:13.332Z,7.47
2019-05-22T18:25:44.294Z,6.10
2019-05-22T18:28:14.914Z,10.90
2019-05-22T18:30:44.941Z,8.30
2019-05-22T18:33:14.864Z,16.33
2019-05-22T18:35:44.968Z,7.43
2019-05-22T18:38:14.970Z,6.80
2019-05-22T18:40:45.367Z,7.50
2019-05-22T18:43:18.723Z,14.97
2019-05-22T18:45:47.066Z,16.00
2019-05-22T18:48:17.230Z,11.43
2019-05-22T18:50:47.098Z,8.97
2019-05-22T18:53:17.465Z,9.43
2019-05-22T18:55:47.335Z,9.73
2019-05-22T18:58:17.227Z,8.13
2019-05-22T19:00:47.161Z,10.60
2019-05-22T19:03:17.106Z,8.07
2019-05-22T19:05:47.126Z,6.47
2019-05-22T19:08:17.417Z,21.07
2019-05-22T19:10:47.407Z,5.67
2019-05-22T19:13:17.477Z,10.20
2019-05-22T19:15:47.390Z,6.57
2019-05-22T19:18:17.419Z,5.43
2019-05-22T19:20:47.572Z,7.27
2019-05-22T19:23:17.722Z,5.83
2019-05-22T19:25:47.714Z,7.57
2019-05-22T19:28:18.642Z,8.73
2019-05-22T19:30:48.851Z,9.07
2019-05-22T19:33:18.804Z,8.93
2019-05-22T19:35:48.818Z,8.73
2019-05-22T19:38:18.819Z,9.00
2019-05-22T19:40:48.774Z,10.23
2019-05-22T19:43:19.119Z,8.33
2019-05-22T19:45:49.143Z,5.73
2019-05-22T19:48:19.483Z,5.30
2019-05-22T19:50:49.758Z,6.80
2019-05-22T19:53:20.069Z,9.40
2019-05-22T19:55:50.374Z,11.87
2019-05-22T19:58:22.135Z,12.37
2019-05-22T20:00:52.535Z,15.90
2019-05-22T20:03:23.138Z,10.60
2019-05-22T20:05:53.301Z,10.43
2019-05-22T20:08:23.230Z,7.93
2019-05-22T20:10:53.249Z,10.00
2019-05-22T20:13:23.653Z,12.17
2019-05-22T20:15:54.278Z,7.30
2019-05-22T20:18:24.212Z,5.87
2019-05-22T20:20:54.417Z,11.23
2019-05-22T20:23:35.409Z,9.27
2019-05-22T20:25:56.299Z,6.43
2019-05-22T20:28:27.815Z,6.83
2019-05-22T20:30:59.283Z,11.20
2019-05-22T20:33:29.735Z,15.20
2019-05-22T20:35:59.590Z,7.57
2019-05-22T20:38:29.555Z,13.93
2019-05-22T20:40:59.499Z,10.37
2019-05-22T20:43:29.426Z,8.10
2019-05-22T20:45:59.405Z,6.50
2019-05-22T20:48:30.671Z,7.03
2019-05-22T20:51:01.086Z,6.93
2019-05-22T20:53:31.469Z,5.53
2019-05-22T20:56:03.464Z,5.47
2019-05-22T20:58:36.382Z,8.37
2019-05-22T21:01:07.555Z,6.30
2019-05-22T21:03:38.154Z,7.93
2019-05-22T21:06:08.503Z,10.57
2019-05-22T21:08:40.239Z,6.30
2019-05-22T21:11:12.305Z,7.40
2019-05-22T21:13:42.234Z,6.67
2019-05-22T21:16:12.410Z,6.67
2019-05-22T21:18:45.868Z,9.83
2019-05-22T21:21:16.394Z,16.17
2019-05-22T21:23:46.243Z,13.33
2019-05-22T21:26:18.363Z,14.43
2019-05-22T21:28:49.096Z,6.33
2019-05-22T21:31:20.248Z,8.60
2019-05-22T21:33:52.065Z,6.27
2019-05-22T21:36:22.983Z,5.60
2019-05-22T21:38:53.038Z,7.00
2019-05-22T21:41:23.590Z,6.27
2019-05-22T21:43:53.578Z,8.40
2019-05-22T21:46:23.818Z,7.27
2019-05-22T21:48:55.392Z,12.07
2019-05-22T21:51:25.350Z,12.03
2019-05-22T21:53:57.414Z,6.93
2019-05-22T21:56:27.458Z,7.73
2019-05-22T21:58:57.478Z,6.00
2019-05-22T22:01:32.278Z,8.13
2019-05-22T22:04:09.150Z,9.87
2019-05-22T22:06:39.483Z,5.40
2019-05-22T22:09:11.241Z,10.23
2019-05-22T22:11:41.474Z,6.13
2019-05-22T22:14:12.074Z,11.27
2019-05-22T22:16:42.014Z,7.37
2019-05-22T22:19:12.534Z,6.33
2019-05-22T22:21:43.142Z,7.93
2019-05-22T22:24:13.121Z,7.13
2019-05-22T22:26:43.086Z,7.57
2019-05-22T22:29:13.003Z,5.63
2019-05-22T22:31:44.464Z,6.87
2019-05-22T22:34:25.574Z,7.73
2019-05-22T22:36:56.331Z,5.33
2019-05-22T22:39:27.686Z,6.17
2019-05-22T22:42:00.246Z,8.93
2019-05-22T22:44:30.746Z,5.97
2019-05-22T22:47:05.858Z,7.50
2019-05-22T22:49:37.919Z,6.20
2019-05-22T22:52:09.391Z,7.73
2019-05-22T22:54:39.634Z,9.40
2019-05-22T22:57:11.602Z,7.47
2019-05-22T22:59:41.498Z,5.77
2019-05-22T23:02:11.527Z,5.87
2019-05-22T23:04:44.178Z,6.47
2019-05-22T23:07:14.030Z,6.10
2019-05-22T23:09:44.161Z,4.43
2019-05-22T23:12:16.195Z,5.57
2019-05-22T23:14:50.663Z,5.63
2019-05-22T23:17:21.158Z,4.03
2019-05-22T23:19:49.670Z,5.67
2019-05-22T23:22:28.734Z,8.23
2019-05-22T23:24:59.474Z,5.57
2019-05-22T23:27:31.464Z,5.67
2019-05-22T23:30:02.875Z,7.53
2019-05-22T23:32:32.863Z,4.13
2019-05-22T23:35:03.164Z,6.47
2019-05-22T23:37:33.327Z,5.90
2019-05-22T23:40:04.067Z,6.37
2019-05-22T23:42:36.312Z,7.43
2019-05-22T23:45:11.978Z,5.17
2019-05-22T23:48:01.090Z,6.43
2019-05-22T23:50:35.325Z,5.00
2019-05-22T23:53:05.935Z,5.50
2019-05-22T23:55:36.389Z,5.13
2019-05-22T23:58:08.779Z,5.03
